createdAt,value
2023-03-28T00:05:03.702Z,101646.13
2023-03-28T00:10:08.238Z,101650.16
2023-03-28T00:15:12.501Z,101648.63
2023-03-28T00:20:17.907Z,101639.44
2023-03-28T00:25:21.560Z,101630.41
2023-03-28T00:30:27.348Z,101609.88
2023-03-28T00:35:32.797Z,101615.41
2023-03-28T00:40:39.510Z,101633.13
2023-03-28T00:45:43.618Z,101618.34
2023-03-28T00:50:49.760Z,101615.81
2023-03-28T00:55:58.934Z,101613.97
2023-03-28T01:01:03.150Z,101604.69
2023-03-28T01:06:10.547Z,101595.75
2023-03-28T01:11:15.196Z,101602.38
2023-03-28T01:16:22.154Z,101598.22
2023-03-28T01:22:06.010Z,101605.13
2023-03-28T01:27:15.937Z,101609.34
2023-03-28T01:32:57.696Z,101605.13
2023-03-28T01:38:08.072Z,101600.28
2023-03-28T01:43:33.613Z,101599.91
2023-03-28T01:48:44.832Z,101601.69
2023-03-28T01:53:58.290Z,101591.25
2023-03-28T01:59:08.068Z,101596.50
2023-03-28T02:04:20.455Z,101596.78
2023-03-28T02:09:27.339Z,101594.88
2023-03-28T02:14:38.334Z,101601.53
2023-03-28T02:19:44.534Z,101614.69
2023-03-28T02:24:49.993Z,101625.31
2023-03-28T02:29:54.650Z,101632.44
2023-03-28T02:34:58.455Z,101634.19
2023-03-28T02:40:16.658Z,101628.31
2023-03-28T02:45:48.091Z,101640.69
2023-03-28T02:51:03.936Z,101632.16
2023-03-28T02:56:16.967Z,101632.66
2023-03-28T03:01:21.220Z,101642.19
2023-03-28T03:06:24.904Z,101646.50
2023-03-28T03:11:30.208Z,101647.56
2023-03-28T03:16:34.357Z,101652.00
2023-03-28T03:21:38.099Z,101647.78
2023-03-28T03:26:43.522Z,101641.66
2023-03-28T03:31:47.253Z,101649.47
2023-03-28T03:36:50.960Z,101655.63
2023-03-28T03:41:56.252Z,101647.97
2023-03-28T03:46:59.916Z,101638.56
2023-03-28T03:52:03.565Z,101645.66
2023-03-28T03:57:08.915Z,101644.78
2023-03-28T04:02:12.606Z,101654.66
2023-03-28T04:07:16.589Z,101645.75
2023-03-28T04:12:21.886Z,101649.97
2023-03-28T04:17:25.617Z,101623.03
2023-03-28T04:22:29.440Z,101630.22
2023-03-28T04:27:34.778Z,101626.69
2023-03-28T04:32:38.448Z,101637.19
2023-03-28T04:37:42.155Z,101629.59
2023-03-28T04:42:47.452Z,101625.50
2023-03-28T04:47:51.166Z,101615.16
2023-03-28T04:52:54.857Z,101618.06
2023-03-28T04:58:00.161Z,101616.28
2023-03-28T05:03:04.349Z,101604.09
2023-03-28T05:08:08.132Z,101599.03
2023-03-28T05:13:13.701Z,101597.28
2023-03-28T05:18:17.568Z,101585.97
2023-03-28T05:23:21.198Z,101577.25
2023-03-28T05:28:26.610Z,101578.06
2023-03-28T05:33:30.266Z,101572.91
2023-03-28T05:38:33.908Z,101545.94
2023-03-28T05:43:39.191Z,101544.22
2023-03-28T05:48:42.861Z,101539.91
2023-03-28T05:53:53.247Z,101544.22
2023-03-28T05:58:58.576Z,101551.25
2023-03-28T06:04:02.276Z,101539.94
2023-03-28T06:09:05.997Z,101554.72
2023-03-28T06:14:11.660Z,101540.00
2023-03-28T06:19:18.292Z,101530.38
2023-03-28T06:24:22.421Z,101532.28
2023-03-28T06:29:27.761Z,101524.53
2023-03-28T06:34:31.442Z,101519.22
2023-03-28T06:39:35.104Z,101516.63
2023-03-28T06:44:40.439Z,101515.75
2023-03-28T06:49:44.088Z,101527.22
2023-03-28T06:54:48.574Z,101521.22
2023-03-28T06:59:53.981Z,101529.81
2023-03-28T07:04:57.597Z,101527.34
2023-03-28T07:10:01.236Z,101531.66
2023-03-28T07:15:07.414Z,101512.53
2023-03-28T07:20:11.708Z,101515.09
2023-03-28T07:25:15.362Z,101502.06
2023-03-28T07:30:20.982Z,101497.72
2023-03-28T07:35:24.643Z,101498.66
2023-03-28T07:40:28.258Z,101504.69
2023-03-28T07:45:34.516Z,101499.47
2023-03-28T07:50:37.495Z,101495.13
2023-03-28T07:55:54.509Z,101487.31
2023-03-28T08:01:06.097Z,101479.44
2023-03-28T08:06:28.811Z,101468.97
2023-03-28T08:11:35.957Z,101472.50
2023-03-28T08:16:41.956Z,101449.03
2023-03-28T08:21:45.591Z,101445.63
2023-03-28T08:26:49.220Z,101438.56
2023-03-28T08:31:54.562Z,101437.66
2023-03-28T08:36:58.183Z,101422.06
2023-03-28T08:42:33.975Z,101405.53
2023-03-28T08:47:48.908Z,101403.88
2023-03-28T08:52:53.424Z,101384.75
2023-03-28T08:57:58.567Z,101378.72
2023-03-28T09:03:10.334Z,101376.13
2023-03-28T09:08:42.630Z,101369.28
2023-03-28T09:13:57.670Z,101365.84
2023-03-28T09:19:14.552Z,101365.00
2023-03-28T09:24:35.570Z,101355.38
2023-03-28T09:29:42.186Z,101347.69
2023-03-28T09:34:51.163Z,101339.88
2023-03-28T09:39:57.558Z,101331.28
2023-03-28T09:45:08.490Z,101314.69
2023-03-28T09:50:17.049Z,101306.81
2023-03-28T09:55:24.082Z,101318.16
2023-03-28T10:00:28.028Z,101295.66
2023-03-28T10:05:38.393Z,101290.38
2023-03-28T10:10:42.085Z,101280.72
2023-03-28T10:15:47.841Z,101276.34
2023-03-28T10:20:53.328Z,101267.78
2023-03-28T10:26:02.151Z,101238.50
2023-03-28T10:31:06.961Z,101220.09
2023-03-28T10:36:24.404Z,101214.97
2023-03-28T10:41:29.292Z,101207.13
2023-03-28T10:46:35.905Z,101208.13
2023-03-28T10:51:43.465Z,101189.03
2023-03-28T10:56:50.557Z,101161.56
2023-03-28T11:02:11.052Z,101153.84
2023-03-28T11:07:23.611Z,101146.09
2023-03-28T11:12:54.343Z,101164.50
2023-03-28T11:18:12.634Z,101129.00
2023-03-28T11:23:42.378Z,101121.25
2023-03-28T11:29:02.792Z,101116.84
2023-03-28T11:34:14.111Z,101114.97
2023-03-28T11:39:27.138Z,101096.06
2023-03-28T11:44:34.218Z,101100.28
2023-03-28T11:49:41.770Z,101111.56
2023-03-28T11:54:50.623Z,101092.47
2023-03-28T11:59:59.086Z,101080.19
2023-03-28T12:05:10.493Z,101083.56
2023-03-28T12:10:21.554Z,101075.75
2023-03-28T12:15:33.240Z,101066.97
2023-03-28T12:20:40.481Z,101048.75
2023-03-28T12:25:52.653Z,101056.56
2023-03-28T12:31:04.042Z,101041.78
2023-03-28T12:36:16.082Z,101034.88
2023-03-28T12:41:24.655Z,101048.75
2023-03-28T12:46:33.854Z,101034.81
2023-03-28T12:51:40.252Z,101029.53
2023-03-28T12:56:45.833Z,101022.56
2023-03-28T13:01:51.502Z,101013.94
2023-03-28T13:07:05.304Z,100996.53
2023-03-28T13:12:26.049Z,100986.03
2023-03-28T13:17:31.032Z,100967.03
2023-03-28T13:22:39.821Z,100964.44
2023-03-28T13:27:45.178Z,100957.38
2023-03-28T13:32:51.665Z,100956.72
2023-03-28T13:37:55.334Z,100950.56
2023-03-28T13:43:01.031Z,100945.34
2023-03-28T13:48:13.097Z,100923.63
2023-03-28T13:53:17.193Z,100927.13
2023-03-28T13:58:24.910Z,100909.91
2023-03-28T14:03:28.613Z,100908.16
2023-03-28T14:08:32.248Z,100910.75
2023-03-28T14:13:39.236Z,100897.47
2023-03-28T14:18:46.543Z,100910.63
2023-03-28T14:24:01.094Z,100896.59
2023-03-28T14:29:10.692Z,100888.78
2023-03-28T14:34:21.828Z,100872.19
2023-03-28T14:39:26.036Z,100870.47
2023-03-28T14:44:36.040Z,100863.41
2023-03-28T14:49:39.812Z,100865.84
2023-03-28T14:54:47.108Z,100850.09
2023-03-28T14:59:53.480Z,100850.88
2023-03-28T15:04:57.807Z,100830.13
2023-03-28T15:10:10.183Z,100842.34
2023-03-28T15:15:23.690Z,100821.34
2023-03-28T15:20:31.146Z,100855.53
2023-03-28T15:25:36.159Z,100793.00
2023-03-28T15:30:46.148Z,100795.44
2023-03-28T15:35:49.918Z,100778.34
2023-03-28T15:41:08.285Z,100770.81
2023-03-28T15:46:15.795Z,100786.53
2023-03-28T15:51:20.189Z,100742.91
2023-03-28T15:56:27.746Z,100755.19
2023-03-28T16:01:34.449Z,100738.88
2023-03-28T16:06:42.615Z,100763.34
2023-03-28T16:11:47.696Z,100789.53
2023-03-28T16:16:56.826Z,100771.63
2023-03-28T16:22:01.200Z,100765.47
2023-03-28T16:27:05.119Z,100768.09
2023-03-28T16:32:12.386Z,100759.97
2023-03-28T16:37:16.016Z,100750.25
2023-03-28T16:42:19.659Z,100729.34
2023-03-28T16:47:25.001Z,100719.94
2023-03-28T16:52:29.984Z,100745.22
2023-03-28T16:57:33.757Z,100737.47
2023-03-28T17:02:39.135Z,100729.66
2023-03-28T17:07:42.923Z,100712.00
2023-03-28T17:12:46.600Z,100705.00
2023-03-28T17:17:51.896Z,100691.06
2023-03-28T17:22:55.817Z,100704.44
2023-03-28T17:27:59.506Z,100750.19
2023-03-28T17:33:04.973Z,100709.91
2023-03-28T17:38:08.702Z,100696.19
2023-03-28T17:43:12.330Z,100692.53
2023-03-28T17:48:17.609Z,100687.25
2023-03-28T17:53:21.414Z,100750.50
2023-03-28T17:58:25.247Z,100811.94
2023-03-28T18:03:30.678Z,100834.09
2023-03-28T18:08:34.874Z,100842.81
2023-03-28T18:13:39.030Z,100869.03
2023-03-28T18:18:44.353Z,100841.13
2023-03-28T18:23:48.019Z,100863.28
2023-03-28T18:28:51.834Z,100849.75
2023-03-28T18:33:58.180Z,100835.56
2023-03-28T18:39:02.041Z,100867.50
2023-03-28T18:44:05.846Z,100896.03
2023-03-28T18:49:12.601Z,100905.72
2023-03-28T18:54:16.371Z,100908.28
2023-03-28T18:59:19.977Z,100911.09
2023-03-28T19:04:25.572Z,100905.94
2023-03-28T19:09:29.320Z,100891.84
2023-03-28T19:14:32.962Z,100901.41
2023-03-28T19:19:38.259Z,100906.63
2023-03-28T19:24:41.895Z,100902.66
2023-03-28T19:29:45.763Z,100907.75
2023-03-28T19:34:52.055Z,100905.78
2023-03-28T19:39:54.925Z,100924.84
2023-03-28T19:44:58.536Z,100929.03
2023-03-28T19:50:03.956Z,100939.47
2023-03-28T19:55:08.972Z,100936.81
2023-03-28T20:00:13.313Z,100937.59
2023-03-28T20:05:18.939Z,100945.09
2023-03-28T20:10:22.594Z,100948.50
2023-03-28T20:15:26.266Z,100942.81
2023-03-28T20:20:31.622Z,100953.50
2023-03-28T20:25:35.541Z,100968.41
2023-03-28T20:30:39.208Z,100937.16
2023-03-28T20:35:51.301Z,100938.03
2023-03-28T20:40:54.985Z,100900.78
2023-03-28T20:46:00.232Z,100898.84
2023-03-28T20:51:07.723Z,100888.53
2023-03-28T20:56:12.549Z,100871.13
2023-03-28T21:01:16.935Z,100870.28
2023-03-28T21:06:23.965Z,100906.75
2023-03-28T21:11:29.274Z,100900.97
2023-03-28T21:16:33.698Z,100881.78
2023-03-28T21:21:39.025Z,100874.44
2023-03-28T21:26:42.683Z,100875.94
2023-03-28T21:31:46.398Z,100862.97
2023-03-28T21:36:51.711Z,100888.41
2023-03-28T21:41:55.657Z,100878.13
2023-03-28T21:46:59.274Z,100881.56
2023-03-28T21:52:04.618Z,100864.72
2023-03-28T21:57:08.379Z,100862.00
2023-03-28T22:02:12.078Z,100871.66
2023-03-28T22:07:17.354Z,100863.09
2023-03-28T22:12:21.006Z,100852.66
2023-03-28T22:17:24.928Z,100853.41
2023-03-28T22:22:30.192Z,100852.84
2023-03-28T22:27:33.864Z,100847.50
2023-03-28T22:32:37.648Z,100860.13
2023-03-28T22:37:43.040Z,100863.03
2023-03-28T22:42:46.728Z,100872.38
2023-03-28T22:47:50.585Z,100866.78
2023-03-28T22:52:57.328Z,100850.47
2023-03-28T22:58:00.944Z,100844.75
2023-03-28T23:03:04.733Z,100839.78
2023-03-28T23:08:11.107Z,100836.34
2023-03-28T23:13:14.742Z,100837.22
2023-03-28T23:18:18.429Z,100839.69
2023-03-28T23:23:23.930Z,100824.81
2023-03-28T23:28:27.563Z,100807.19
2023-03-28T23:33:31.235Z,100799.66
2023-03-28T23:38:36.529Z,100791.47
2023-03-28T23:43:40.317Z,100799.56
2023-03-28T23:48:43.984Z,100794.94
2023-03-28T23:53:49.268Z,100780.38
2023-03-28T23:58:53.100Z,100782.69
